createdAt,value
2023-01-31T00:00:32.660Z,0
2023-01-31T00:01:35.488Z,0
2023-01-31T00:02:32.927Z,0
2023-01-31T00:03:33.131Z,0
2023-01-31T00:04:32.671Z,0
2023-01-31T00:05:32.683Z,0
2023-01-31T00:06:32.680Z,0
2023-01-31T00:07:36.216Z,0
2023-01-31T00:08:32.690Z,0
2023-01-31T00:09:32.684Z,0
2023-01-31T00:10:32.704Z,0
2023-01-31T00:11:32.693Z,0
2023-01-31T00:12:35.416Z,0
2023-01-31T00:13:32.707Z,0
2023-01-31T00:14:32.728Z,0
2023-01-31T00:15:32.816Z,0
2023-01-31T00:16:32.721Z,0
2023-01-31T00:17:32.664Z,0
2023-01-31T00:18:36.039Z,0
2023-01-31T00:19:32.661Z,0
2023-01-31T00:20:32.737Z,0
2023-01-31T00:21:32.706Z,0
2023-01-31T00:22:33.078Z,0
2023-01-31T00:23:36.308Z,0
2023-01-31T00:24:32.696Z,0
2023-01-31T00:25:32.687Z,0
2023-01-31T00:26:33.047Z,0
2023-01-31T00:27:32.704Z,0
2023-01-31T00:28:32.708Z,0
2023-01-31T00:29:36.020Z,0
2023-01-31T00:30:32.737Z,0
2023-01-31T00:31:33.408Z,0
2023-01-31T00:32:32.739Z,0
2023-01-31T00:33:32.697Z,0
2023-01-31T00:34:35.502Z,0
2023-01-31T00:35:32.713Z,0
2023-01-31T00:36:32.719Z,0
2023-01-31T00:37:32.728Z,0
2023-01-31T00:38:32.729Z,0
2023-01-31T00:39:32.738Z,0
2023-01-31T00:40:36.070Z,0
2023-01-31T00:41:32.754Z,0
2023-01-31T00:42:32.840Z,0
2023-01-31T00:43:32.727Z,0
2023-01-31T00:44:32.720Z,0
2023-01-31T00:45:35.830Z,0
2023-01-31T00:46:33.098Z,0
2023-01-31T00:47:32.728Z,0
2023-01-31T00:48:32.747Z,0
2023-01-31T00:49:32.724Z,0
2023-01-31T00:50:32.731Z,0
2023-01-31T00:51:36.886Z,0
2023-01-31T00:52:32.910Z,0
2023-01-31T00:53:32.741Z,0
2023-01-31T00:54:32.745Z,0
2023-01-31T00:55:32.733Z,0
2023-01-31T00:56:36.168Z,0
2023-01-31T00:57:32.733Z,0
2023-01-31T00:58:32.825Z,0
2023-01-31T00:59:32.735Z,0
2023-01-31T01:00:32.942Z,0
2023-01-31T01:01:33.288Z,0
2023-01-31T01:02:33.375Z,0
2023-01-31T01:03:33.032Z,0
2023-01-31T01:04:32.938Z,0
2023-01-31T01:05:33.012Z,0
2023-01-31T01:06:32.830Z,0
2023-01-31T01:07:33.014Z,0
2023-01-31T01:08:32.816Z,0
2023-01-31T01:09:32.763Z,0
2023-01-31T01:10:33.358Z,0
2023-01-31T01:11:33.298Z,0
2023-01-31T01:12:35.492Z,0
2023-01-31T01:13:32.979Z,0
2023-01-31T01:14:33.119Z,0
2023-01-31T01:15:32.886Z,0
2023-01-31T01:16:33.082Z,0
2023-01-31T01:17:32.758Z,0
2023-01-31T01:18:32.851Z,0
2023-01-31T01:19:32.767Z,0
2023-01-31T01:20:33.473Z,0
2023-01-31T01:21:33.461Z,0
2023-01-31T01:22:33.246Z,0
2023-01-31T01:23:33.155Z,0
2023-01-31T01:24:33.007Z,0
2023-01-31T01:25:32.872Z,0
2023-01-31T01:26:34.069Z,0
2023-01-31T01:27:32.902Z,0
2023-01-31T01:28:36.622Z,0
2023-01-31T01:29:32.768Z,0
2023-01-31T01:30:33.542Z,0
2023-01-31T01:31:34.104Z,0
2023-01-31T01:32:33.214Z,0
2023-01-31T01:33:33.133Z,0
2023-01-31T01:34:32.921Z,0
2023-01-31T01:35:33.030Z,0
2023-01-31T01:36:33.635Z,0
2023-01-31T01:37:32.862Z,0
2023-01-31T01:38:32.809Z,0
2023-01-31T01:39:35.488Z,0
2023-01-31T01:40:33.526Z,0
2023-01-31T01:41:33.399Z,0
2023-01-31T01:42:33.239Z,0
2023-01-31T01:43:33.117Z,0
2023-01-31T01:44:33.036Z,0
2023-01-31T01:45:36.805Z,0
2023-01-31T01:46:32.956Z,0
2023-01-31T01:47:32.835Z,0
2023-01-31T01:48:32.841Z,0
2023-01-31T01:49:33.583Z,0
2023-01-31T01:50:36.396Z,0
2023-01-31T01:51:33.273Z,0
2023-01-31T01:52:33.154Z,0
2023-01-31T01:53:33.194Z,0
2023-01-31T01:54:33.860Z,0
2023-01-31T01:55:37.747Z,0
2023-01-31T01:56:33.147Z,0
2023-01-31T01:57:33.843Z,0
2023-01-31T01:58:33.776Z,0
2023-01-31T01:59:33.466Z,0
2023-01-31T02:00:33.374Z,0
2023-01-31T02:01:36.183Z,0
2023-01-31T02:02:34.317Z,0
2023-01-31T02:03:33.283Z,0
2023-01-31T02:04:32.825Z,0
2023-01-31T02:05:32.975Z,0
2023-01-31T02:06:36.340Z,0
2023-01-31T02:07:32.860Z,0
2023-01-31T02:08:33.479Z,0
2023-01-31T02:09:33.425Z,0
2023-01-31T02:10:33.288Z,0
2023-01-31T02:11:33.231Z,0
2023-01-31T02:12:36.287Z,0
2023-01-31T02:13:33.085Z,0
2023-01-31T02:14:32.851Z,0
2023-01-31T02:15:32.847Z,0
2023-01-31T02:16:33.266Z,0
2023-01-31T02:17:36.221Z,0
2023-01-31T02:18:33.679Z,0
2023-01-31T02:19:33.532Z,0
2023-01-31T02:20:33.672Z,0
2023-01-31T02:21:33.344Z,0
2023-01-31T02:22:33.179Z,0
2023-01-31T02:23:35.972Z,0
2023-01-31T02:24:32.900Z,0
2023-01-31T02:25:32.869Z,0
2023-01-31T02:26:33.088Z,0
2023-01-31T02:27:33.903Z,0
2023-01-31T02:28:35.877Z,0
2023-01-31T02:29:33.605Z,0
2023-01-31T02:30:33.388Z,0
2023-01-31T02:31:33.422Z,0
2023-01-31T02:32:33.025Z,0
2023-01-31T02:33:32.958Z,0
2023-01-31T02:34:35.817Z,0
2023-01-31T02:35:33.536Z,0
2023-01-31T02:36:32.929Z,0
2023-01-31T02:37:33.435Z,0
2023-01-31T02:38:33.467Z,0
2023-01-31T02:39:36.906Z,0
2023-01-31T02:40:33.498Z,0
2023-01-31T02:41:33.176Z,0
2023-01-31T02:42:33.126Z,0
2023-01-31T02:43:33.203Z,0
2023-01-31T02:44:32.916Z,0
2023-01-31T02:45:35.923Z,0
2023-01-31T02:46:33.214Z,0
2023-01-31T02:47:33.162Z,0
2023-01-31T02:48:33.467Z,0
2023-01-31T02:49:33.000Z,0
2023-01-31T02:50:35.681Z,0
2023-01-31T02:51:35.604Z,0
2023-01-31T02:52:33.104Z,0
2023-01-31T02:53:33.042Z,0
2023-01-31T02:54:33.039Z,0
2023-01-31T02:55:32.922Z,0
2023-01-31T02:56:35.842Z,0
2023-01-31T02:57:33.088Z,0
2023-01-31T02:58:33.079Z,0
2023-01-31T02:59:32.989Z,0
2023-01-31T03:00:32.986Z,0
2023-01-31T03:01:36.716Z,0
2023-01-31T03:02:33.141Z,0
2023-01-31T03:03:33.082Z,0
2023-01-31T03:04:33.021Z,0
2023-01-31T03:05:33.166Z,0
2023-01-31T03:06:33.122Z,0
2023-01-31T03:07:36.476Z,0
2023-01-31T03:08:32.954Z,0
2023-01-31T03:09:32.991Z,0
2023-01-31T03:10:32.959Z,0
2023-01-31T03:11:32.925Z,0
2023-01-31T03:12:35.707Z,0
2023-01-31T03:13:33.021Z,0
2023-01-31T03:14:32.961Z,0
2023-01-31T03:15:32.933Z,0
2023-01-31T03:16:33.142Z,0
2023-01-31T03:17:32.984Z,0
2023-01-31T03:18:36.301Z,0
2023-01-31T03:19:32.975Z,0
2023-01-31T03:20:32.970Z,0
2023-01-31T03:21:32.998Z,0
2023-01-31T03:22:32.966Z,0
2023-01-31T03:23:36.295Z,0
2023-01-31T03:24:33.013Z,0
2023-01-31T03:25:33.041Z,0
2023-01-31T03:26:33.171Z,0
2023-01-31T03:27:32.988Z,0
2023-01-31T03:28:32.999Z,0
2023-01-31T03:29:32.997Z,0
2023-01-31T03:30:33.062Z,0
2023-01-31T03:31:33.665Z,0
2023-01-31T03:32:32.975Z,0
2023-01-31T03:33:32.966Z,0
2023-01-31T03:34:33.034Z,0
2023-01-31T03:35:33.008Z,0
2023-01-31T03:36:32.989Z,0
2023-01-31T03:37:33.023Z,0
2023-01-31T03:38:33.014Z,0
2023-01-31T03:39:33.029Z,0
2023-01-31T03:40:32.982Z,0
2023-01-31T03:41:33.050Z,0
2023-01-31T03:42:33.031Z,0
2023-01-31T03:43:33.005Z,0
2023-01-31T03:44:33.053Z,0
2023-01-31T03:45:33.009Z,0
2023-01-31T03:46:33.240Z,0
2023-01-31T03:47:33.017Z,0
2023-01-31T03:48:32.984Z,0
2023-01-31T03:49:33.053Z,0
2023-01-31T03:50:35.923Z,0
2023-01-31T03:51:32.992Z,0
2023-01-31T03:52:33.018Z,0
2023-01-31T03:53:33.113Z,0
2023-01-31T03:54:33.019Z,0
2023-01-31T03:55:33.016Z,0
2023-01-31T03:56:33.034Z,0
2023-01-31T03:57:33.026Z,0
2023-01-31T03:58:33.265Z,0
2023-01-31T03:59:33.037Z,0
2023-01-31T04:00:33.024Z,0
2023-01-31T04:01:33.191Z,0
2023-01-31T04:02:33.168Z,0
2023-01-31T04:03:33.066Z,0
2023-01-31T04:04:33.081Z,0
2023-01-31T04:05:33.042Z,0
2023-01-31T04:06:33.215Z,0
2023-01-31T04:07:36.034Z,0
2023-01-31T04:08:33.045Z,0
2023-01-31T04:09:33.106Z,0
2023-01-31T04:10:33.060Z,0
2023-01-31T04:11:32.888Z,0
2023-01-31T04:12:33.043Z,0
2023-01-31T04:13:33.070Z,0
2023-01-31T04:14:33.157Z,0
2023-01-31T04:15:33.067Z,0
2023-01-31T04:16:33.379Z,0
2023-01-31T04:17:36.201Z,0
2023-01-31T04:18:34.828Z,0
2023-01-31T04:19:33.268Z,0
2023-01-31T04:20:33.263Z,0
2023-01-31T04:21:33.204Z,0
2023-01-31T04:22:33.297Z,0
2023-01-31T04:23:33.419Z,0
2023-01-31T04:24:36.838Z,0
2023-01-31T04:25:36.464Z,0
2023-01-31T04:26:33.377Z,0
2023-01-31T04:27:33.379Z,0
2023-01-31T04:28:36.599Z,0
2023-01-31T04:29:33.194Z,0
2023-01-31T04:30:33.292Z,0
2023-01-31T04:31:33.780Z,0
2023-01-31T04:32:33.432Z,0
2023-01-31T04:33:36.705Z,0
2023-01-31T04:34:33.081Z,0
2023-01-31T04:35:33.164Z,0
2023-01-31T04:36:33.334Z,0
2023-01-31T04:37:33.123Z,0
2023-01-31T04:38:33.164Z,0
2023-01-31T04:39:36.621Z,0
2023-01-31T04:40:33.148Z,0
2023-01-31T04:41:33.117Z,0
2023-01-31T04:42:33.343Z,0
2023-01-31T04:43:33.192Z,0
2023-01-31T04:44:36.601Z,0
2023-01-31T04:45:33.142Z,0
2023-01-31T04:46:33.381Z,0
2023-01-31T04:47:33.126Z,0
2023-01-31T04:48:35.367Z,0
2023-01-31T04:49:33.107Z,0
2023-01-31T04:50:36.611Z,0
2023-01-31T04:51:33.134Z,0
2023-01-31T04:52:33.113Z,0
2023-01-31T04:53:33.150Z,0
2023-01-31T04:54:33.159Z,0
2023-01-31T04:55:36.525Z,0
2023-01-31T04:56:33.098Z,0
2023-01-31T04:57:33.103Z,0
2023-01-31T04:58:33.123Z,0
2023-01-31T04:59:33.116Z,0
2023-01-31T05:00:33.191Z,0
2023-01-31T05:01:36.284Z,0
2023-01-31T05:02:33.742Z,0
2023-01-31T05:03:33.114Z,0
2023-01-31T05:04:33.198Z,0
2023-01-31T05:05:36.277Z,0
2023-01-31T05:06:36.347Z,0
2023-01-31T05:07:33.827Z,0
2023-01-31T05:08:36.498Z,0
2023-01-31T05:09:33.804Z,0
2023-01-31T05:10:33.878Z,0
2023-01-31T05:11:33.681Z,0
2023-01-31T05:12:34.081Z,0
2023-01-31T05:13:33.722Z,0
2023-01-31T05:14:33.729Z,0
2023-01-31T05:15:33.793Z,0
2023-01-31T05:16:33.864Z,0
2023-01-31T05:17:33.822Z,0
2023-01-31T05:18:33.715Z,0
2023-01-31T05:19:33.738Z,0
2023-01-31T05:20:33.736Z,0
2023-01-31T05:21:33.748Z,0
2023-01-31T05:22:33.648Z,0
2023-01-31T05:23:36.753Z,0
2023-01-31T05:24:33.741Z,0
2023-01-31T05:25:33.872Z,0
2023-01-31T05:26:33.830Z,0
2023-01-31T05:27:34.050Z,0
2023-01-31T05:28:38.685Z,0
2023-01-31T05:29:33.653Z,0
2023-01-31T05:30:34.102Z,0
2023-01-31T05:31:33.861Z,0
2023-01-31T05:32:33.635Z,0
2023-01-31T05:33:34.998Z,0
2023-01-31T05:34:36.327Z,0
2023-01-31T05:35:33.582Z,0
2023-01-31T05:36:33.499Z,0
2023-01-31T05:37:33.490Z,0
2023-01-31T05:38:33.664Z,0
2023-01-31T05:39:36.236Z,0
2023-01-31T05:40:33.485Z,0
2023-01-31T05:41:33.524Z,0
2023-01-31T05:42:33.517Z,0
2023-01-31T05:43:36.106Z,0
2023-01-31T05:44:34.476Z,0
2023-01-31T05:45:36.753Z,0
2023-01-31T05:46:33.417Z,0
2023-01-31T05:47:36.708Z,0
2023-01-31T05:48:33.572Z,0
2023-01-31T05:49:33.561Z,0
2023-01-31T05:50:36.839Z,0
2023-01-31T05:51:33.397Z,0
2023-01-31T05:52:33.484Z,0
2023-01-31T05:53:33.491Z,0
2023-01-31T05:54:33.689Z,0
2023-01-31T05:55:33.560Z,0
2023-01-31T05:56:33.476Z,0
2023-01-31T05:57:33.428Z,0
2023-01-31T05:58:33.298Z,0
2023-01-31T05:59:33.430Z,0
2023-01-31T06:00:33.433Z,0
2023-01-31T06:01:33.481Z,0
2023-01-31T06:02:33.603Z,0
2023-01-31T06:03:33.528Z,0
2023-01-31T06:04:33.538Z,0
2023-01-31T06:05:33.276Z,0
2023-01-31T06:06:33.440Z,0
2023-01-31T06:07:33.307Z,0
2023-01-31T06:08:33.373Z,0
2023-01-31T06:09:33.309Z,0
2023-01-31T06:10:33.291Z,0
2023-01-31T06:11:33.342Z,0
2023-01-31T06:12:33.237Z,0
2023-01-31T06:13:33.212Z,0
2023-01-31T06:14:33.250Z,0
2023-01-31T06:15:33.307Z,0
2023-01-31T06:16:33.452Z,0
2023-01-31T06:17:41.949Z,0
2023-01-31T06:18:33.216Z,0
2023-01-31T06:19:33.249Z,0
2023-01-31T06:20:33.446Z,0
2023-01-31T06:21:35.843Z,0
2023-01-31T06:22:34.141Z,0
2023-01-31T06:23:33.243Z,0
2023-01-31T06:24:33.242Z,0
2023-01-31T06:25:33.255Z,0
2023-01-31T06:26:33.448Z,0
2023-01-31T06:27:33.260Z,0
2023-01-31T06:28:33.266Z,0
2023-01-31T06:29:33.253Z,4
2023-01-31T06:30:34.480Z,0
2023-01-31T06:31:34.357Z,0
2023-01-31T06:32:33.298Z,0
2023-01-31T06:33:52.670Z,4
2023-01-31T06:34:33.279Z,4
2023-01-31T06:35:33.305Z,4
2023-01-31T06:36:33.305Z,0
2023-01-31T06:37:33.269Z,0
2023-01-31T06:38:33.693Z,4
2023-01-31T06:39:33.261Z,4
2023-01-31T06:40:33.255Z,4
2023-01-31T06:41:33.933Z,0
2023-01-31T06:42:33.942Z,4
2023-01-31T06:43:34.033Z,4
2023-01-31T06:44:37.491Z,4
2023-01-31T06:45:33.324Z,8
2023-01-31T06:46:33.997Z,8
2023-01-31T06:47:33.909Z,4
2023-01-31T06:48:33.982Z,8
2023-01-31T06:49:33.890Z,4
2023-01-31T06:50:33.948Z,8
2023-01-31T06:51:33.941Z,8
2023-01-31T06:52:33.712Z,8
2023-01-31T06:53:33.763Z,8
2023-01-31T06:54:33.892Z,8
2023-01-31T06:55:36.305Z,8
2023-01-31T06:56:33.672Z,12
2023-01-31T06:57:33.705Z,8
2023-01-31T06:58:33.854Z,12
2023-01-31T06:59:33.635Z,16
2023-01-31T07:00:36.507Z,12
2023-01-31T07:01:33.843Z,16
2023-01-31T07:02:33.710Z,20
2023-01-31T07:03:33.783Z,20
2023-01-31T07:04:33.811Z,16
2023-01-31T07:05:33.641Z,20
2023-01-31T07:06:36.452Z,20
2023-01-31T07:07:33.564Z,24
2023-01-31T07:08:37.209Z,28
2023-01-31T07:09:33.552Z,28
2023-01-31T07:10:33.590Z,28
2023-01-31T07:11:34.930Z,28
2023-01-31T07:12:33.757Z,28
2023-01-31T07:13:33.666Z,36
2023-01-31T07:14:33.780Z,36
2023-01-31T07:15:33.619Z,40
2023-01-31T07:16:33.601Z,36
2023-01-31T07:17:36.419Z,40
2023-01-31T07:18:33.754Z,40
2023-01-31T07:19:33.555Z,40
2023-01-31T07:20:33.711Z,40
2023-01-31T07:21:33.553Z,44
2023-01-31T07:22:36.929Z,48
2023-01-31T07:23:33.502Z,56
2023-01-31T07:24:33.532Z,56
2023-01-31T07:25:33.593Z,52
2023-01-31T07:26:33.620Z,52
2023-01-31T07:27:33.539Z,60
2023-01-31T07:28:36.444Z,68
2023-01-31T07:29:33.707Z,72
2023-01-31T07:30:33.639Z,68
2023-01-31T07:31:33.726Z,64
2023-01-31T07:32:33.523Z,64
2023-01-31T07:33:36.873Z,64
2023-01-31T07:34:33.537Z,68
2023-01-31T07:35:33.471Z,76
2023-01-31T07:36:33.461Z,80
2023-01-31T07:37:33.386Z,76
2023-01-31T07:38:33.408Z,72
2023-01-31T07:39:36.382Z,64
2023-01-31T07:40:33.384Z,68
2023-01-31T07:41:33.555Z,72
2023-01-31T07:42:33.488Z,76
2023-01-31T07:43:33.381Z,84
2023-01-31T07:44:36.927Z,88
2023-01-31T07:45:33.471Z,88
2023-01-31T07:46:33.623Z,88
2023-01-31T07:47:33.369Z,96
2023-01-31T07:48:33.376Z,116
2023-01-31T07:49:33.465Z,124
2023-01-31T07:50:36.521Z,132
2023-01-31T07:51:33.484Z,140
2023-01-31T07:52:33.400Z,144
2023-01-31T07:53:35.228Z,152
2023-01-31T07:54:33.427Z,156
2023-01-31T07:55:36.687Z,160
2023-01-31T07:56:33.412Z,164
2023-01-31T07:57:33.409Z,164
2023-01-31T07:58:33.435Z,160
2023-01-31T07:59:33.405Z,160
2023-01-31T08:00:33.430Z,164
2023-01-31T08:01:41.756Z,156
2023-01-31T08:02:33.386Z,148
2023-01-31T08:03:36.964Z,140
2023-01-31T08:04:34.513Z,144
2023-01-31T08:05:34.193Z,140
2023-01-31T08:06:35.509Z,140
2023-01-31T08:07:34.193Z,132
2023-01-31T08:08:34.332Z,120
2023-01-31T08:09:34.444Z,112
2023-01-31T08:10:34.135Z,116
2023-01-31T08:11:34.183Z,124
2023-01-31T08:12:36.852Z,128
2023-01-31T08:13:34.024Z,132
2023-01-31T08:14:33.980Z,136
2023-01-31T08:15:34.196Z,140
2023-01-31T08:16:34.092Z,148
2023-01-31T08:17:36.618Z,164
2023-01-31T08:18:34.204Z,172
2023-01-31T08:19:37.229Z,168
2023-01-31T08:20:34.055Z,180
2023-01-31T08:21:34.095Z,200
2023-01-31T08:22:34.070Z,228
2023-01-31T08:23:34.385Z,344
2023-01-31T08:24:34.067Z,772
2023-01-31T08:25:34.625Z,1232
2023-01-31T08:26:34.247Z,660
2023-01-31T08:27:34.098Z,1060
2023-01-31T08:28:34.189Z,676
2023-01-31T08:29:34.019Z,488
2023-01-31T08:30:35.154Z,1988
2023-01-31T08:31:35.100Z,1656
2023-01-31T08:32:34.195Z,1024
2023-01-31T08:33:33.872Z,808
2023-01-31T08:34:33.878Z,808
2023-01-31T08:35:33.923Z,796
2023-01-31T08:36:34.542Z,488
2023-01-31T08:37:33.999Z,408
2023-01-31T08:38:34.030Z,404
2023-01-31T08:39:33.866Z,320
2023-01-31T08:40:33.769Z,332
2023-01-31T08:41:33.901Z,280
2023-01-31T08:42:33.901Z,244
2023-01-31T08:43:58.418Z,196
2023-01-31T08:44:36.514Z,188
2023-01-31T08:45:33.815Z,188
2023-01-31T08:46:34.027Z,196
2023-01-31T08:47:33.875Z,200
2023-01-31T08:48:34.894Z,208
2023-01-31T08:49:33.848Z,224
2023-01-31T08:50:35.368Z,236
2023-01-31T08:51:33.864Z,248
2023-01-31T08:52:33.616Z,248
2023-01-31T08:53:33.551Z,244
2023-01-31T08:54:33.693Z,236
2023-01-31T08:55:33.926Z,220
2023-01-31T08:56:33.933Z,196
2023-01-31T08:57:33.682Z,180
2023-01-31T08:58:33.613Z,172
2023-01-31T08:59:33.708Z,168
2023-01-31T09:00:37.035Z,172
2023-01-31T09:01:33.968Z,172
2023-01-31T09:02:33.714Z,172
2023-01-31T09:03:33.680Z,172
2023-01-31T09:04:33.602Z,164
2023-01-31T09:05:33.741Z,164
2023-01-31T09:06:33.779Z,160
2023-01-31T09:07:34.880Z,160
2023-01-31T09:08:33.575Z,160
2023-01-31T09:09:36.235Z,156
2023-01-31T09:10:33.782Z,160
2023-01-31T09:11:36.877Z,156
2023-01-31T09:12:33.601Z,156
2023-01-31T09:13:33.619Z,144
2023-01-31T09:14:33.636Z,136
2023-01-31T09:15:33.768Z,136
2023-01-31T09:16:33.890Z,136
2023-01-31T09:17:33.590Z,140
2023-01-31T09:18:33.588Z,140
2023-01-31T09:19:33.527Z,144
2023-01-31T09:20:33.548Z,148
2023-01-31T09:21:33.666Z,148
2023-01-31T09:22:37.074Z,152
2023-01-31T09:23:33.531Z,156
2023-01-31T09:24:33.531Z,160
2023-01-31T09:25:52.970Z,160
2023-01-31T09:26:34.657Z,160
2023-01-31T09:27:34.555Z,160
2023-01-31T09:28:33.528Z,156
2023-01-31T09:29:33.657Z,152
2023-01-31T09:30:33.732Z,148
2023-01-31T09:31:33.833Z,144
2023-01-31T09:32:33.591Z,148
2023-01-31T09:33:36.316Z,152
2023-01-31T09:34:33.595Z,156
2023-01-31T09:35:34.372Z,164
2023-01-31T09:36:34.359Z,176
2023-01-31T09:37:34.566Z,188
2023-01-31T09:38:36.764Z,200
2023-01-31T09:39:34.379Z,212
2023-01-31T09:40:34.302Z,224
2023-01-31T09:41:34.490Z,228
2023-01-31T09:42:34.401Z,236
2023-01-31T09:43:33.599Z,244
2023-01-31T09:44:37.047Z,248
2023-01-31T09:45:34.354Z,252
2023-01-31T09:46:34.425Z,252
2023-01-31T09:47:34.623Z,252
2023-01-31T09:48:34.299Z,256
2023-01-31T09:49:36.925Z,256
2023-01-31T09:50:34.355Z,248
2023-01-31T09:51:34.309Z,232
2023-01-31T09:52:34.291Z,212
2023-01-31T09:53:34.125Z,200
2023-01-31T09:54:34.327Z,204
2023-01-31T09:55:37.018Z,212
2023-01-31T09:56:34.120Z,232
2023-01-31T09:57:34.333Z,264
2023-01-31T09:58:34.364Z,296
2023-01-31T09:59:34.322Z,296
2023-01-31T10:00:37.477Z,272
2023-01-31T10:01:34.242Z,256
2023-01-31T10:02:34.354Z,232
2023-01-31T10:03:34.285Z,212
2023-01-31T10:04:34.055Z,204
2023-01-31T10:05:34.218Z,192
2023-01-31T10:07:34.172Z,196
2023-01-31T10:08:34.119Z,220
2023-01-31T10:09:34.068Z,248
2023-01-31T10:10:33.608Z,268
2023-01-31T10:11:38.827Z,280
2023-01-31T10:12:33.973Z,284
2023-01-31T10:13:33.859Z,268
2023-01-31T10:14:34.086Z,240
2023-01-31T10:15:33.927Z,208
2023-01-31T10:16:34.021Z,188
2023-01-31T10:17:36.971Z,184
2023-01-31T10:18:33.833Z,188
2023-01-31T10:19:34.051Z,204
2023-01-31T10:20:33.890Z,236
2023-01-31T10:21:33.904Z,292
2023-01-31T10:22:37.195Z,364
2023-01-31T10:23:34.542Z,432
2023-01-31T10:24:34.715Z,488
2023-01-31T10:25:34.564Z,516
2023-01-31T10:26:34.912Z,528
2023-01-31T10:27:34.305Z,512
2023-01-31T10:28:36.944Z,468
2023-01-31T10:29:35.010Z,448
2023-01-31T10:30:34.452Z,416
2023-01-31T10:31:34.580Z,412
2023-01-31T10:32:34.259Z,400
2023-01-31T10:33:37.094Z,396
2023-01-31T10:34:34.156Z,392
2023-01-31T10:35:34.213Z,392
2023-01-31T10:36:33.990Z,388
2023-01-31T10:37:34.637Z,368
2023-01-31T10:38:33.999Z,356
2023-01-31T10:39:37.647Z,336
2023-01-31T10:40:33.978Z,320
2023-01-31T10:41:34.220Z,344
2023-01-31T10:42:33.765Z,348
2023-01-31T10:43:33.676Z,340
2023-01-31T10:44:37.187Z,344
2023-01-31T10:45:34.980Z,356
2023-01-31T10:46:33.674Z,344
2023-01-31T10:47:33.739Z,332
2023-01-31T10:48:33.716Z,308
2023-01-31T10:49:33.949Z,280
2023-01-31T10:50:33.716Z,260
2023-01-31T10:51:33.655Z,252
2023-01-31T10:52:33.725Z,252
2023-01-31T10:53:33.727Z,256
2023-01-31T10:54:33.661Z,240
2023-01-31T10:55:33.688Z,212
2023-01-31T10:56:33.677Z,196
2023-01-31T10:57:33.734Z,200
2023-01-31T10:58:33.674Z,204
2023-01-31T10:59:33.751Z,204
2023-01-31T11:00:33.731Z,188
2023-01-31T11:01:34.050Z,164
2023-01-31T11:02:34.083Z,156
2023-01-31T11:03:33.700Z,160
2023-01-31T11:04:33.712Z,152
2023-01-31T11:05:33.724Z,140
2023-01-31T11:06:33.723Z,144
2023-01-31T11:07:33.667Z,152
2023-01-31T11:08:33.686Z,164
2023-01-31T11:09:33.700Z,180
2023-01-31T11:10:33.721Z,208
2023-01-31T11:11:36.557Z,236
2023-01-31T11:12:33.703Z,256
2023-01-31T11:13:33.699Z,308
2023-01-31T11:14:33.749Z,332
2023-01-31T11:15:33.721Z,316
2023-01-31T11:16:34.042Z,288
2023-01-31T11:17:33.704Z,272
2023-01-31T11:18:33.725Z,320
2023-01-31T11:19:33.733Z,420
2023-01-31T11:20:33.851Z,460
2023-01-31T11:21:33.923Z,528
2023-01-31T11:22:33.731Z,576
2023-01-31T11:23:33.710Z,640
2023-01-31T11:24:35.917Z,644
2023-01-31T11:25:33.803Z,616
2023-01-31T11:26:33.916Z,736
2023-01-31T11:27:36.794Z,640
2023-01-31T11:28:33.728Z,648
2023-01-31T11:29:33.705Z,636
2023-01-31T11:30:34.108Z,616
2023-01-31T11:31:34.040Z,620
2023-01-31T11:32:33.807Z,612
2023-01-31T11:33:33.757Z,608
2023-01-31T11:34:33.856Z,592
2023-01-31T11:35:33.818Z,568
2023-01-31T11:36:33.898Z,552
2023-01-31T11:37:36.645Z,536
2023-01-31T11:38:36.769Z,508
2023-01-31T11:39:34.172Z,496
2023-01-31T11:40:33.773Z,488
2023-01-31T11:41:33.575Z,420
2023-01-31T11:42:33.788Z,360
2023-01-31T11:43:33.772Z,368
2023-01-31T11:44:33.725Z,392
2023-01-31T11:45:33.782Z,388
2023-01-31T11:46:33.986Z,376
2023-01-31T11:47:33.770Z,368
2023-01-31T11:48:33.863Z,340
2023-01-31T11:49:36.756Z,292
2023-01-31T11:50:35.128Z,276
2023-01-31T11:51:34.028Z,292
2023-01-31T11:52:33.953Z,276
2023-01-31T11:53:33.793Z,268
2023-01-31T11:54:33.852Z,276
2023-01-31T11:55:33.733Z,236
2023-01-31T11:56:33.940Z,196
2023-01-31T11:57:33.796Z,176
2023-01-31T11:58:33.808Z,164
2023-01-31T11:59:33.772Z,148
2023-01-31T12:00:36.705Z,140
2023-01-31T12:01:33.755Z,136
2023-01-31T12:02:34.227Z,128
2023-01-31T12:03:34.125Z,108
2023-01-31T12:04:33.906Z,96
2023-01-31T12:05:37.019Z,96
2023-01-31T12:06:33.779Z,96
2023-01-31T12:07:33.827Z,92
2023-01-31T12:08:35.999Z,92
2023-01-31T12:09:33.803Z,92
2023-01-31T12:10:33.775Z,100
2023-01-31T12:11:36.668Z,96
2023-01-31T12:12:33.789Z,92
2023-01-31T12:13:33.911Z,100
2023-01-31T12:14:33.872Z,108
2023-01-31T12:15:33.818Z,96
2023-01-31T12:16:37.099Z,112
2023-01-31T12:17:33.813Z,120
2023-01-31T12:18:35.613Z,108
2023-01-31T12:19:33.776Z,112
2023-01-31T12:20:36.067Z,100
2023-01-31T12:21:33.838Z,96
2023-01-31T12:22:36.555Z,96
2023-01-31T12:23:33.873Z,92
2023-01-31T12:24:33.827Z,88
2023-01-31T12:25:33.811Z,92
2023-01-31T12:26:34.022Z,96
2023-01-31T12:27:38.653Z,96
2023-01-31T12:28:33.877Z,88
2023-01-31T12:29:33.898Z,80
2023-01-31T12:30:34.237Z,76
2023-01-31T12:31:34.073Z,72
2023-01-31T12:32:33.849Z,72
2023-01-31T12:33:36.709Z,76
2023-01-31T12:34:33.907Z,80
2023-01-31T12:35:34.068Z,76
2023-01-31T12:36:33.869Z,68
2023-01-31T12:37:33.828Z,56
2023-01-31T12:38:37.641Z,44
2023-01-31T12:39:33.828Z,44
2023-01-31T12:40:36.410Z,48
2023-01-31T12:41:33.872Z,44
2023-01-31T12:42:33.833Z,40
2023-01-31T12:43:33.877Z,44
2023-01-31T12:44:37.163Z,52
2023-01-31T12:45:33.863Z,60
2023-01-31T12:46:34.195Z,60
2023-01-31T12:47:33.854Z,60
2023-01-31T12:48:33.925Z,60
2023-01-31T12:49:36.787Z,64
2023-01-31T12:50:33.877Z,60
2023-01-31T12:51:33.846Z,64
2023-01-31T12:52:33.906Z,72
2023-01-31T12:53:33.887Z,76
2023-01-31T12:54:33.914Z,76
2023-01-31T12:55:36.939Z,76
2023-01-31T12:56:33.877Z,76
2023-01-31T12:57:36.827Z,80
2023-01-31T12:58:34.042Z,92
2023-01-31T12:59:33.867Z,96
2023-01-31T13:00:37.031Z,92
2023-01-31T13:01:34.204Z,96
2023-01-31T13:02:34.118Z,92
2023-01-31T13:03:33.947Z,88
2023-01-31T13:04:33.873Z,88
2023-01-31T13:05:35.423Z,88
2023-01-31T13:06:36.588Z,76
2023-01-31T13:07:34.283Z,68
2023-01-31T13:08:33.921Z,72
2023-01-31T13:09:33.912Z,68
2023-01-31T13:10:33.895Z,64
2023-01-31T13:11:36.856Z,64
2023-01-31T13:12:33.918Z,68
2023-01-31T13:13:35.014Z,64
2023-01-31T13:14:33.971Z,72
2023-01-31T13:15:33.904Z,84
2023-01-31T13:16:33.931Z,80
2023-01-31T13:17:33.913Z,76
2023-01-31T13:18:33.918Z,88
2023-01-31T13:19:33.970Z,88
2023-01-31T13:20:33.932Z,80
2023-01-31T13:21:33.934Z,76
2023-01-31T13:22:33.904Z,76
2023-01-31T13:23:33.956Z,68
2023-01-31T13:24:33.998Z,60
2023-01-31T13:25:33.910Z,52
2023-01-31T13:26:34.177Z,52
2023-01-31T13:27:33.912Z,52
2023-01-31T13:28:33.905Z,52
2023-01-31T13:29:34.932Z,56
2023-01-31T13:30:33.965Z,60
2023-01-31T13:31:34.563Z,60
2023-01-31T13:32:33.930Z,56
2023-01-31T13:33:33.958Z,52
2023-01-31T13:34:33.893Z,52
2023-01-31T13:35:33.940Z,48
2023-01-31T13:36:33.905Z,56
2023-01-31T13:37:33.983Z,60
2023-01-31T13:38:37.971Z,56
2023-01-31T13:39:33.920Z,52
2023-01-31T13:40:33.976Z,52
2023-01-31T13:41:33.930Z,64
2023-01-31T13:42:33.951Z,80
2023-01-31T13:43:33.936Z,92
2023-01-31T13:44:33.938Z,108
2023-01-31T13:45:33.937Z,140
2023-01-31T13:46:34.076Z,176
2023-01-31T13:47:33.964Z,160
2023-01-31T13:48:34.017Z,136
2023-01-31T13:49:34.109Z,104
2023-01-31T13:50:33.930Z,96
2023-01-31T13:51:33.913Z,104
2023-01-31T13:52:34.108Z,96
2023-01-31T13:53:33.978Z,84
2023-01-31T13:54:36.948Z,72
2023-01-31T13:55:33.937Z,68
2023-01-31T13:56:34.012Z,64
2023-01-31T13:57:33.984Z,60
2023-01-31T13:58:36.597Z,56
2023-01-31T13:59:34.076Z,56
2023-01-31T14:00:34.009Z,52
2023-01-31T14:01:34.193Z,48
2023-01-31T14:02:34.140Z,40
2023-01-31T14:03:33.953Z,48
2023-01-31T14:04:34.014Z,48
2023-01-31T14:05:37.719Z,52
2023-01-31T14:06:33.976Z,56
2023-01-31T14:07:33.961Z,64
2023-01-31T14:08:34.079Z,68
2023-01-31T14:09:33.983Z,76
2023-01-31T14:10:34.022Z,68
2023-01-31T14:11:34.036Z,64
2023-01-31T14:12:34.001Z,56
2023-01-31T14:13:34.004Z,60
2023-01-31T14:14:34.093Z,64
2023-01-31T14:15:33.939Z,60
2023-01-31T14:16:37.089Z,56
2023-01-31T14:17:34.031Z,60
2023-01-31T14:18:33.971Z,56
2023-01-31T14:19:33.960Z,48
2023-01-31T14:20:34.015Z,44
2023-01-31T14:21:34.071Z,48